createdAt,value
2018-11-14T00:00:50.667Z,28.15
2018-11-14T00:03:19.865Z,26.62
2018-11-14T00:05:52.130Z,25.68
2018-11-14T00:08:23.389Z,25.85
2018-11-14T00:10:52.311Z,29.42
2018-11-14T00:13:21.177Z,28.00
2018-11-14T00:15:50.095Z,28.38
2018-11-14T00:18:18.962Z,29.72
2018-11-14T00:20:47.935Z,29.70
2018-11-14T00:23:16.845Z,30.40
2018-11-14T00:25:46.489Z,30.62
2018-11-14T00:28:15.575Z,33.92
2018-11-14T00:30:44.722Z,33.53
2018-11-14T00:33:14.089Z,34.13
2018-11-14T00:35:43.378Z,34.43
2018-11-14T00:38:12.127Z,34.60
2018-11-14T00:40:40.934Z,35.25
2018-11-14T00:43:09.889Z,35.20
2018-11-14T00:45:39.293Z,32.85
2018-11-14T00:48:08.169Z,35.23
2018-11-14T00:50:37.126Z,31.25
2018-11-14T00:53:12.825Z,31.20
2018-11-14T00:55:43.850Z,29.67
2018-11-14T00:58:13.053Z,31.10
2018-11-14T01:00:42.054Z,36.55
2018-11-14T01:03:12.854Z,34.08
2018-11-14T01:05:41.796Z,32.35
2018-11-14T01:08:11.953Z,32.28
2018-11-14T01:10:43.671Z,33.65
2018-11-14T01:13:12.558Z,36.70
2018-11-14T01:15:41.619Z,37.25
2018-11-14T01:18:10.422Z,38.58
2018-11-14T01:20:39.281Z,38.88
2018-11-14T01:23:08.932Z,35.88
2018-11-14T01:25:37.961Z,37.93
2018-11-14T01:28:06.891Z,37.00
2018-11-14T01:30:35.952Z,36.08
2018-11-14T01:33:05.558Z,34.55
2018-11-14T01:35:35.558Z,34.85
2018-11-14T01:38:05.355Z,36.28
2018-11-14T01:40:35.089Z,35.68
2018-11-14T01:43:04.078Z,35.70
2018-11-14T01:45:33.177Z,35.00
2018-11-14T01:48:02.673Z,33.05
2018-11-14T01:50:32.522Z,35.30
2018-11-14T01:53:01.525Z,33.67
2018-11-14T01:55:31.661Z,34.90
2018-11-14T01:58:00.934Z,32.05
2018-11-14T02:00:30.882Z,37.40
2018-11-14T02:03:00.703Z,37.00
2018-11-14T02:05:29.622Z,35.92
2018-11-14T02:07:59.375Z,35.98
2018-11-14T02:10:28.313Z,34.00
2018-11-14T02:12:57.263Z,30.55
2018-11-14T02:15:26.889Z,31.27
2018-11-14T02:17:55.823Z,31.45
2018-11-14T02:20:28.323Z,29.23
2018-11-14T02:22:57.131Z,30.57
2018-11-14T02:25:26.014Z,30.52
2018-11-14T02:27:54.840Z,31.30
2018-11-14T02:30:24.554Z,28.55
2018-11-14T02:32:53.370Z,29.95
2018-11-14T02:35:22.328Z,29.90
2018-11-14T02:37:51.265Z,29.27
2018-11-14T02:40:21.895Z,29.50
2018-11-14T02:42:51.102Z,31.05
2018-11-14T02:45:20.072Z,28.70
2018-11-14T02:47:49.078Z,29.85
2018-11-14T02:50:19.010Z,30.27
2018-11-14T02:52:48.124Z,31.33
2018-11-14T02:55:18.774Z,34.33
2018-11-14T02:57:47.820Z,41.18
2018-11-14T03:00:21.066Z,39.20
2018-11-14T03:02:50.405Z,37.30
2018-11-14T03:05:19.885Z,49.85
2018-11-14T03:07:49.449Z,30.88
2018-11-14T03:10:21.893Z,42.93
2018-11-14T03:12:51.332Z,31.15
2018-11-14T03:15:21.499Z,31.02
2018-11-14T03:17:52.658Z,29.18
2018-11-14T03:20:22.536Z,26.75
2018-11-14T03:22:51.496Z,25.23
2018-11-14T03:25:20.654Z,26.02
2018-11-14T03:27:49.596Z,25.80
2018-11-14T03:30:19.257Z,23.12
2018-11-14T03:32:48.405Z,25.43
2018-11-14T03:35:17.165Z,25.88
2018-11-14T03:37:46.075Z,27.13
2018-11-14T03:40:16.216Z,22.15
2018-11-14T03:42:45.270Z,25.52
2018-11-14T03:45:14.865Z,24.75
2018-11-14T03:47:44.370Z,24.57
2018-11-14T03:50:13.290Z,23.90
2018-11-14T03:52:42.313Z,20.00
2018-11-14T03:55:11.363Z,29.63
2018-11-14T03:57:42.482Z,21.75
2018-11-14T04:00:14.093Z,22.45
2018-11-14T04:02:44.913Z,23.12
2018-11-14T04:05:13.806Z,23.07
2018-11-14T04:07:43.272Z,27.30
2018-11-14T04:10:14.454Z,23.70
2018-11-14T04:12:43.747Z,21.00
2018-11-14T04:15:13.619Z,21.45
2018-11-14T04:17:43.146Z,23.22
2018-11-14T04:20:14.707Z,22.05
2018-11-14T04:22:43.676Z,23.60
2018-11-14T04:25:21.130Z,23.32
2018-11-14T04:27:50.637Z,24.57
2018-11-14T04:30:22.077Z,26.10
2018-11-14T04:32:51.194Z,20.60
2018-11-14T04:35:20.853Z,20.95
2018-11-14T04:37:50.657Z,18.80
2018-11-14T04:40:22.776Z,26.60
2018-11-14T04:42:52.833Z,23.67
2018-11-14T04:45:23.790Z,22.42
2018-11-14T04:47:52.813Z,24.77
2018-11-14T04:50:24.965Z,25.37
2018-11-14T04:52:55.047Z,25.32
2018-11-14T04:55:29.121Z,40.12
2018-11-14T04:57:58.029Z,22.10
2018-11-14T05:00:27.683Z,21.52
2018-11-14T05:02:57.014Z,22.70
2018-11-14T05:05:25.921Z,19.00
2018-11-14T05:07:54.680Z,24.23
2018-11-14T05:10:24.796Z,17.30
2018-11-14T05:12:54.483Z,15.35
2018-11-14T05:15:24.995Z,13.90
2018-11-14T05:17:55.029Z,15.13
2018-11-14T05:20:35.814Z,17.67
2018-11-14T05:23:04.772Z,16.37
2018-11-14T05:25:34.214Z,17.32
2018-11-14T05:28:03.285Z,17.10
2018-11-14T05:30:32.096Z,17.23
2018-11-14T05:33:00.953Z,20.75
2018-11-14T05:35:30.170Z,18.32
2018-11-14T05:37:59.100Z,15.85
2018-11-14T05:40:27.920Z,18.05
2018-11-14T05:42:56.834Z,17.48
2018-11-14T05:45:26.922Z,17.40
2018-11-14T05:47:55.834Z,17.98
2018-11-14T05:50:25.184Z,14.30
2018-11-14T05:52:54.308Z,13.32
2018-11-14T05:55:25.223Z,13.18
2018-11-14T05:57:54.073Z,11.75
2018-11-14T06:00:31.337Z,13.40
2018-11-14T06:03:01.493Z,13.48
2018-11-14T06:05:30.410Z,14.00
2018-11-14T06:07:59.899Z,19.32
2018-11-14T06:10:28.942Z,14.38
2018-11-14T06:12:57.890Z,13.65
2018-11-14T06:15:29.016Z,13.62
2018-11-14T06:17:58.626Z,12.85
2018-11-14T06:20:27.488Z,12.50
2018-11-14T06:22:56.404Z,13.05
2018-11-14T06:25:34.205Z,11.78
2018-11-14T06:28:04.289Z,11.12
2018-11-14T06:30:33.661Z,15.35
2018-11-14T06:33:03.382Z,11.35
2018-11-14T06:35:32.288Z,12.50
2018-11-14T06:38:03.418Z,12.63
2018-11-14T06:40:32.438Z,11.85
2018-11-14T06:43:01.577Z,14.90
2018-11-14T06:45:32.118Z,14.63
2018-11-14T06:48:02.312Z,13.58
2018-11-14T06:50:31.257Z,13.53
2018-11-14T06:53:02.054Z,14.25
2018-11-14T06:55:31.649Z,14.63
2018-11-14T06:58:00.643Z,14.75
2018-11-14T07:00:31.669Z,14.58
2018-11-14T07:03:02.257Z,15.85
2018-11-14T07:05:32.183Z,28.98
2018-11-14T07:08:00.892Z,20.35
2018-11-14T07:10:31.884Z,19.45
2018-11-14T07:13:05.472Z,18.87
2018-11-14T07:15:35.039Z,18.50
2018-11-14T07:21:01.679Z,19.70
2018-11-14T07:23:30.833Z,22.82
2018-11-14T07:25:59.615Z,24.00
2018-11-14T07:28:28.463Z,25.35
2018-11-14T07:30:57.349Z,22.90
2018-11-14T07:33:26.184Z,23.95
2018-11-14T07:35:55.953Z,23.07
2018-11-14T07:38:37.755Z,24.90
2018-11-14T07:41:08.690Z,23.20
2018-11-14T07:43:40.094Z,23.45
2018-11-14T07:46:09.645Z,21.97
2018-11-14T07:48:39.079Z,20.25
2018-11-14T07:51:08.196Z,20.52
2018-11-14T07:53:37.432Z,23.40
2018-11-14T07:56:06.339Z,23.22
2018-11-14T07:58:35.114Z,21.05
2018-11-14T08:01:04.153Z,22.77
2018-11-14T08:03:33.070Z,21.17
2018-11-14T08:06:01.945Z,19.50
2018-11-14T08:08:31.659Z,20.52
2018-11-14T08:11:01.065Z,18.87
2018-11-14T08:13:34.293Z,22.60
2018-11-14T08:16:03.800Z,20.50
2018-11-14T08:18:33.498Z,18.73
2018-11-14T08:21:03.266Z,18.23
2018-11-14T08:23:32.145Z,19.27
2018-11-14T08:26:01.289Z,18.40
2018-11-14T08:28:30.453Z,18.40
2018-11-14T08:30:59.923Z,19.07
2018-11-14T08:33:28.717Z,19.87
2018-11-14T08:36:04.210Z,16.25
2018-11-14T08:38:33.205Z,20.48
2018-11-14T08:41:03.217Z,15.58
2018-11-14T08:43:32.254Z,15.30
2018-11-14T08:46:01.965Z,14.95
2018-11-14T08:48:30.819Z,13.38
2018-11-14T08:51:01.105Z,11.43
2018-11-14T08:53:30.185Z,12.23
2018-11-14T08:55:59.054Z,11.35
2018-11-14T08:58:28.078Z,10.78
2018-11-14T09:00:57.103Z,13.22
2018-11-14T09:03:25.983Z,12.25
2018-11-14T09:05:55.743Z,13.20
2018-11-14T09:08:24.739Z,13.08
2018-11-14T09:10:53.823Z,9.90
2018-11-14T09:13:22.646Z,9.28
2018-11-14T09:15:51.522Z,11.33
2018-11-14T09:18:20.696Z,9.18
2018-11-14T09:20:49.977Z,12.18
2018-11-14T09:23:19.301Z,21.45
2018-11-14T09:25:48.228Z,65.65
2018-11-14T09:28:17.169Z,9.20
2018-11-14T09:30:46.101Z,8.43
2018-11-14T09:33:15.181Z,9.63
2018-11-14T09:35:44.113Z,9.13
2018-11-14T09:38:13.653Z,8.35
2018-11-14T09:40:50.859Z,7.80
2018-11-14T09:43:19.673Z,7.40
2018-11-14T09:45:49.237Z,6.63
2018-11-14T09:48:18.180Z,5.77
2018-11-14T09:50:47.856Z,5.90
2018-11-14T09:53:16.738Z,4.63
2018-11-14T09:55:45.741Z,4.77
2018-11-14T09:58:17.133Z,6.80
2018-11-14T10:00:46.176Z,5.70
2018-11-14T10:03:17.353Z,7.63
2018-11-14T10:05:46.373Z,6.00
2018-11-14T10:08:16.009Z,5.07
2018-11-14T10:10:45.181Z,4.97
2018-11-14T10:13:14.244Z,7.23
2018-11-14T10:15:43.920Z,6.23
2018-11-14T10:18:12.905Z,5.47
2018-11-14T10:20:49.691Z,4.50
2018-11-14T10:23:18.572Z,5.03
2018-11-14T10:25:48.374Z,5.37
2018-11-14T10:28:17.707Z,5.30
2018-11-14T10:30:46.767Z,6.57
2018-11-14T10:33:15.646Z,5.60
2018-11-14T10:35:44.492Z,5.20
2018-11-14T10:38:19.717Z,6.50
2018-11-14T10:40:48.651Z,6.33
2018-11-14T10:43:18.088Z,6.60
2018-11-14T10:45:48.199Z,6.40
2018-11-14T10:48:17.080Z,7.60
2018-11-14T10:50:45.944Z,8.37
2018-11-14T10:53:14.832Z,7.00
2018-11-14T10:55:43.797Z,7.50
2018-11-14T10:58:14.344Z,6.77
2018-11-14T11:00:52.381Z,8.80
2018-11-14T11:03:26.479Z,14.97
2018-11-14T11:06:00.334Z,28.17
2018-11-14T11:08:34.480Z,19.10
2018-11-14T11:11:08.653Z,8.57
2018-11-14T11:14:12.937Z,9.23
2018-11-14T11:16:49.111Z,9.67
2018-11-14T11:19:22.200Z,10.97
2018-11-14T11:21:56.118Z,11.63
2018-11-14T11:24:25.297Z,10.57
2018-11-14T11:26:54.296Z,12.70
2018-11-14T11:29:23.328Z,11.27
2018-11-14T11:31:52.149Z,11.30
2018-11-14T11:36:54.454Z,10.60
2018-11-14T11:39:23.280Z,10.30
2018-11-14T11:41:52.939Z,13.20
2018-11-14T11:44:21.745Z,11.00
2018-11-14T11:46:50.517Z,10.90
2018-11-14T11:49:19.568Z,10.53
2018-11-14T11:51:48.483Z,11.10
2018-11-14T11:54:17.469Z,14.80
2018-11-14T11:56:46.592Z,13.23
2018-11-14T11:59:15.555Z,10.93
2018-11-14T12:01:44.498Z,10.40
2018-11-14T12:04:14.020Z,10.00
2018-11-14T12:06:43.124Z,11.70
2018-11-14T12:09:12.668Z,9.90
2018-11-14T12:11:41.593Z,12.27
2018-11-14T12:14:11.010Z,9.97
2018-11-14T12:16:40.124Z,11.57
2018-11-14T12:19:09.477Z,12.37
2018-11-14T12:21:38.598Z,11.63
2018-11-14T12:24:07.739Z,12.13
2018-11-14T12:26:36.600Z,12.13
2018-11-14T12:29:05.678Z,11.90
2018-11-14T12:31:35.251Z,12.50
2018-11-14T12:34:06.254Z,12.55
2018-11-14T12:36:35.749Z,11.75
2018-11-14T12:39:06.493Z,12.50
2018-11-14T12:41:35.379Z,12.80
2018-11-14T12:44:04.529Z,11.90
2018-11-14T12:46:33.689Z,11.13
2018-11-14T12:49:02.835Z,11.20
2018-11-14T12:51:32.071Z,10.60
2018-11-14T12:54:01.012Z,10.63
2018-11-14T12:56:29.897Z,11.63
2018-11-14T12:58:58.900Z,11.10
2018-11-14T13:01:27.840Z,12.60
2018-11-14T13:03:57.009Z,11.43
2018-11-14T13:06:25.887Z,11.73
2018-11-14T13:08:55.147Z,11.15
2018-11-14T13:11:25.075Z,10.90
2018-11-14T13:13:54.178Z,10.00
2018-11-14T13:16:23.178Z,11.35
2018-11-14T13:18:52.144Z,12.00
2018-11-14T13:21:21.240Z,11.20
2018-11-14T13:23:50.132Z,11.97
2018-11-14T13:26:19.352Z,11.20
2018-11-14T13:28:48.546Z,11.00
2018-11-14T13:31:17.545Z,10.58
2018-11-14T13:33:46.909Z,12.17
2018-11-14T13:36:15.830Z,12.47
2018-11-14T13:38:44.774Z,12.10
2018-11-14T13:41:13.897Z,11.60
2018-11-14T13:43:44.830Z,11.63
2018-11-14T13:46:14.090Z,11.48
2018-11-14T13:48:43.550Z,10.37
2018-11-14T13:51:12.718Z,11.33
2018-11-14T13:53:41.643Z,11.40
2018-11-14T13:56:10.990Z,11.70
2018-11-14T13:58:39.842Z,10.55
2018-11-14T14:01:08.670Z,10.37
2018-11-14T14:03:37.584Z,9.65
2018-11-14T14:06:07.053Z,9.23
2018-11-14T14:08:48.653Z,9.30
2018-11-14T14:11:18.152Z,10.10
2018-11-14T14:13:52.211Z,11.20
2018-11-14T14:16:21.372Z,11.70
2018-11-14T14:18:50.601Z,11.05
2018-11-14T14:21:23.885Z,12.00
2018-11-14T14:23:52.825Z,11.73
2018-11-14T14:26:21.865Z,12.23
2018-11-14T14:28:52.948Z,10.85
2018-11-14T14:31:24.681Z,10.73
2018-11-14T14:33:55.709Z,12.17
2018-11-14T14:36:25.974Z,11.93
2018-11-14T14:38:55.021Z,10.77
2018-11-14T14:41:24.871Z,10.80
2018-11-14T14:43:55.024Z,10.87
2018-11-14T14:46:24.984Z,11.30
2018-11-14T14:48:53.975Z,10.40
2018-11-14T14:51:23.722Z,9.73
2018-11-14T14:53:55.361Z,10.13
2018-11-14T14:56:25.246Z,10.07
2018-11-14T14:58:59.699Z,14.10
2018-11-14T15:01:28.765Z,8.93
2018-11-14T15:03:58.301Z,8.47
2018-11-14T15:06:29.629Z,9.57
2018-11-14T15:08:58.510Z,10.63
2018-11-14T15:11:27.705Z,10.10
2018-11-14T15:14:13.660Z,10.90
2018-11-14T15:16:42.749Z,11.90
2018-11-14T15:22:06.480Z,13.10
2018-11-14T15:27:29.481Z,14.55
2018-11-14T15:30:09.063Z,15.83
2018-11-14T15:32:38.593Z,15.35
2018-11-14T15:35:09.880Z,14.98
2018-11-14T15:37:38.978Z,16.05
2018-11-14T15:40:09.786Z,17.42
2018-11-14T15:42:39.292Z,16.93
2018-11-14T15:45:11.338Z,16.65
2018-11-14T15:47:40.285Z,14.70
2018-11-14T15:50:18.740Z,15.55
2018-11-14T15:52:48.507Z,19.25
2018-11-14T15:55:18.512Z,23.67
2018-11-14T15:57:47.441Z,21.57
2018-11-14T16:00:19.274Z,23.05
2018-11-14T16:02:48.281Z,28.90
2018-11-14T16:05:20.219Z,28.75
2018-11-14T16:07:50.284Z,28.47
2018-11-14T16:10:20.482Z,27.70
2018-11-14T16:12:49.606Z,44.93
2018-11-14T16:15:20.075Z,60.63
2018-11-14T16:17:49.679Z,38.92
2018-11-14T16:20:20.743Z,30.88
2018-11-14T16:22:49.733Z,33.30
2018-11-14T16:25:19.820Z,31.42
2018-11-14T16:27:49.673Z,35.68
2018-11-14T16:30:24.979Z,39.78
2018-11-14T16:32:55.438Z,37.08
2018-11-14T16:35:24.443Z,33.08
2018-11-14T16:37:53.574Z,35.10
2018-11-14T16:40:23.874Z,34.30
2018-11-14T16:42:53.946Z,34.70
2018-11-14T16:45:23.287Z,33.58
2018-11-14T16:47:53.333Z,33.33
2018-11-14T16:50:23.061Z,26.75
2018-11-14T16:52:51.941Z,28.02
2018-11-14T16:55:21.752Z,32.95
2018-11-14T16:57:51.526Z,35.05
2018-11-14T17:00:22.787Z,33.90
2018-11-14T17:02:51.826Z,31.07
2018-11-14T17:05:22.465Z,29.63
2018-11-14T17:08:16.682Z,30.25
2018-11-14T17:10:45.803Z,27.85
2018-11-14T17:13:14.854Z,30.75
2018-11-14T17:15:44.028Z,32.63
2018-11-14T17:18:14.094Z,35.63
2018-11-14T17:21:03.199Z,33.20
2018-11-14T17:23:32.277Z,31.97
2018-11-14T17:26:01.143Z,32.58
2018-11-14T17:28:30.080Z,28.60
2018-11-14T17:30:59.032Z,28.10
2018-11-14T17:33:28.217Z,28.15
2018-11-14T17:35:57.451Z,29.27
2018-11-14T17:38:26.462Z,30.02
2018-11-14T17:41:03.707Z,30.90
2018-11-14T17:43:38.543Z,48.20
2018-11-14T17:46:07.621Z,39.18
2018-11-14T17:48:36.610Z,43.55
2018-11-14T17:51:12.494Z,41.37
2018-11-14T17:53:41.543Z,41.55
2018-11-14T17:56:10.679Z,43.73
2018-11-14T17:58:39.697Z,40.25
2018-11-14T18:01:08.886Z,49.95
2018-11-14T18:03:38.452Z,37.15
2018-11-14T18:06:10.586Z,48.65
2018-11-14T18:08:39.431Z,45.80
2018-11-14T18:11:08.355Z,32.93
2018-11-14T18:13:38.348Z,36.38
2018-11-14T18:16:07.939Z,34.05
2018-11-14T18:18:36.932Z,35.43
2018-11-14T18:21:06.110Z,33.55
2018-11-14T18:23:35.072Z,35.68
2018-11-14T18:26:04.777Z,35.23
2018-11-14T18:28:36.263Z,37.03
2018-11-14T18:31:12.437Z,36.58
2018-11-14T18:33:41.793Z,38.92
2018-11-14T18:36:11.092Z,33.02
2018-11-14T18:38:40.205Z,40.38
2018-11-14T18:41:09.116Z,62.78
2018-11-14T18:43:38.025Z,34.08
2018-11-14T18:46:07.144Z,32.55
2018-11-14T18:48:37.157Z,36.68
2018-11-14T18:51:06.311Z,62.43
2018-11-14T18:53:37.577Z,51.30
2018-11-14T18:56:07.441Z,44.18
2018-11-14T19:01:34.532Z,33.85
2018-11-14T19:04:03.613Z,32.80
2018-11-14T19:06:32.536Z,40.67
2018-11-14T19:09:01.416Z,49.00
2018-11-14T19:11:30.373Z,50.85
2018-11-14T19:13:59.405Z,42.53
2018-11-14T19:16:28.374Z,38.75
2018-11-14T19:18:58.125Z,49.80
2018-11-14T19:21:27.008Z,64.85
2018-11-14T19:23:56.538Z,63.68
2018-11-14T19:26:25.423Z,74.17
2018-11-14T19:28:56.487Z,83.33
2018-11-14T19:31:25.986Z,61.92
2018-11-14T19:33:54.885Z,61.20
2018-11-14T19:36:23.730Z,60.95
2018-11-14T19:38:52.751Z,66.33
2018-11-14T19:41:22.156Z,77.80
2018-11-14T19:43:51.193Z,64.40
2018-11-14T19:46:20.094Z,68.95
2018-11-14T19:48:49.017Z,59.13
2018-11-14T19:51:18.879Z,60.63
2018-11-14T19:53:47.944Z,61.65
2018-11-14T19:56:17.565Z,62.05
2018-11-14T19:58:48.282Z,59.58
2018-11-14T20:01:18.149Z,60.00
2018-11-14T20:03:47.618Z,61.70
2018-11-14T20:06:16.567Z,45.00
2018-11-14T20:08:45.531Z,76.15
2018-11-14T20:11:14.415Z,46.77
2018-11-14T20:13:43.906Z,41.60
2018-11-14T20:16:13.035Z,43.63
2018-11-14T20:18:41.920Z,133.97
2018-11-14T20:21:11.415Z,55.00
2018-11-14T20:23:40.303Z,52.62
2018-11-14T20:26:09.208Z,49.23
2018-11-14T20:28:38.069Z,48.15
2018-11-14T20:31:07.580Z,45.55
2018-11-14T20:33:36.642Z,47.30
2018-11-14T20:36:05.769Z,46.73
2018-11-14T20:38:36.776Z,47.80
2018-11-14T20:41:06.055Z,45.52
2018-11-14T20:43:34.918Z,42.78
2018-11-14T20:46:03.814Z,44.70
2018-11-14T20:48:32.692Z,50.65
2018-11-14T20:51:01.651Z,42.78
2018-11-14T20:53:31.501Z,44.08
2018-11-14T20:56:00.634Z,54.33
2018-11-14T20:58:29.550Z,51.53
2018-11-14T21:00:58.604Z,48.38
2018-11-14T21:03:27.537Z,52.65
2018-11-14T21:05:56.660Z,57.17
2018-11-14T21:08:25.867Z,48.48
2018-11-14T21:10:56.166Z,51.45
2018-11-14T21:13:25.469Z,50.43
2018-11-14T21:15:55.552Z,46.10
2018-11-14T21:18:25.657Z,44.55
2018-11-14T21:20:56.150Z,43.58
2018-11-14T21:23:25.251Z,45.33
2018-11-14T21:25:54.933Z,47.93
2018-11-14T21:28:24.109Z,39.20
2018-11-14T21:30:54.316Z,41.50
2018-11-14T21:33:25.805Z,37.60
2018-11-14T21:35:55.724Z,38.20
2018-11-14T21:38:25.441Z,40.40
2018-11-14T21:40:54.509Z,36.83
2018-11-14T21:43:23.456Z,40.03
2018-11-14T21:45:54.083Z,43.92
2018-11-14T21:48:23.215Z,36.20
2018-11-14T21:50:52.241Z,46.15
2018-11-14T21:53:21.342Z,54.20
2018-11-14T21:55:50.093Z,47.05
2018-11-14T21:58:19.158Z,47.17
2018-11-14T22:00:48.031Z,44.48
2018-11-14T22:03:17.013Z,63.80
2018-11-14T22:05:46.540Z,69.30
2018-11-14T22:08:16.855Z,53.15
2018-11-14T22:10:45.793Z,46.13
2018-11-14T22:13:14.577Z,45.25
2018-11-14T22:15:43.672Z,39.30
2018-11-14T22:18:12.906Z,37.38
2018-11-14T22:20:41.856Z,36.83
2018-11-14T22:23:11.254Z,35.60
2018-11-14T22:25:40.331Z,38.38
2018-11-14T22:28:09.486Z,32.53
2018-11-14T22:30:39.018Z,36.20
2018-11-14T22:33:08.205Z,37.45
2018-11-14T22:35:37.246Z,35.43
2018-11-14T22:38:08.813Z,34.50
2018-11-14T22:40:39.823Z,34.03
2018-11-14T22:43:08.820Z,37.75
2018-11-14T22:45:37.972Z,37.65
2018-11-14T22:48:07.492Z,37.60
2018-11-14T22:50:36.642Z,35.40
2018-11-14T22:53:06.447Z,36.95
2018-11-14T22:55:35.295Z,35.35
2018-11-14T22:58:04.253Z,31.73
2018-11-14T23:00:37.394Z,34.27
2018-11-14T23:03:07.281Z,32.67
2018-11-14T23:05:36.176Z,32.58
2018-11-14T23:08:05.249Z,31.97
2018-11-14T23:10:34.272Z,33.15
2018-11-14T23:13:03.660Z,32.30
2018-11-14T23:15:32.623Z,31.87
2018-11-14T23:18:02.385Z,30.72
2018-11-14T23:20:31.280Z,29.45
2018-11-14T23:23:00.225Z,30.17
2018-11-14T23:25:30.001Z,34.53
2018-11-14T23:27:59.032Z,35.00
2018-11-14T23:30:28.172Z,40.40
2018-11-14T23:32:57.926Z,38.30
2018-11-14T23:35:29.950Z,42.80
2018-11-14T23:38:07.213Z,37.80
2018-11-14T23:40:36.131Z,37.50
2018-11-14T23:43:06.073Z,36.23
2018-11-14T23:45:35.293Z,35.75
2018-11-14T23:48:06.097Z,35.95
2018-11-14T23:50:35.569Z,34.23
2018-11-14T23:53:05.961Z,34.05
2018-11-14T23:55:34.957Z,32.93
2018-11-14T23:58:04.928Z,33.35
